Time;durP1;ratioP1;P1;durP2;ratioP2;P2;SDS_P1;SDS_P2;PMS_P1;PMS_P2;Temp;Humidity;BMP_temperature;BMP_pressure;BME280_temperature;BME280_humidity;BME280_pressure;Samples;Min_cycle;Max_cycle;Signal;HPM_P1;HPM_P2
2023/10/05 00:03:47;;;;;;;13.23;9.75;;;24.90;99.90;;;;;;5036286;28;20020;-52
2023/10/05 00:06:16;;;;;;;14.10;9.88;;;24.90;99.90;;;;;;5043679;28;20024;-52
2023/10/05 00:08:45;;;;;;;14.38;10.30;;;24.90;99.90;;;;;;5048782;28;20053;-51
2023/10/05 00:11:23;;;;;;;12.55;9.27;;;24.80;99.90;;;;;;5049024;28;20075;-51
2023/10/05 00:13:56;;;;;;;12.88;10.27;;;24.90;99.90;;;;;;5042709;28;20052;-52
2023/10/05 00:16:22;;;;;;;13.98;10.00;;;24.90;99.90;;;;;;5044684;28;20412;-51
2023/10/05 00:18:52;;;;;;;13.63;9.60;;;24.80;99.90;;;;;;5043784;28;20015;-52
2023/10/05 00:21:20;;;;;;;12.30;9.25;;;24.80;99.90;;;;;;5048620;28;20530;-51
2023/10/05 00:23:56;;;;;;;;;;;24.80;99.90;;;;;;5042590;28;20485;-51
2023/10/05 00:26:28;;;;;;;15.88;10.40;;;24.80;99.90;;;;;;5040064;28;20266;-51
2023/10/05 00:31:41;;;;;;;12.63;9.35;;;24.70;99.90;;;;;;5045235;28;20040;-51
2023/10/05 00:34:09;;;;;;;16.98;9.63;;;24.80;99.90;;;;;;5052898;28;20025;-51
2023/10/05 00:36:40;;;;;;;15.38;10.18;;;24.70;99.90;;;;;;5052096;28;20021;-52
2023/10/05 00:39:09;;;;;;;17.08;10.20;;;24.70;99.90;;;;;;5053001;28;20044;-51
2023/10/05 00:41:36;;;;;;;19.40;10.02;;;24.70;99.90;;;;;;5044183;28;20381;-52
2023/10/05 00:44:05;;;;;;;20.30;10.73;;;24.70;99.90;;;;;;5031489;28;20033;-51
2023/10/05 00:46:37;;;;;;;14.57;10.27;;;24.70;99.90;;;;;;5048704;28;20021;-52
2023/10/05 00:49:14;;;;;;;14.85;10.38;;;24.70;99.90;;;;;;5052567;28;20033;-52
2023/10/05 00:51:52;;;;;;;11.80;9.60;;;24.70;99.90;;;;;;5052566;28;20358;-49
2023/10/05 00:54:22;;;;;;;16.58;10.85;;;24.70;99.90;;;;;;5052409;28;20470;-50
2023/10/05 00:56:49;;;;;;;16.17;10.40;;;24.70;99.90;;;;;;5052393;28;20466;-50
2023/10/05 00:59:16;;;;;;;18.20;9.93;;;24.60;99.90;;;;;;5052445;28;20021;-50
2023/10/05 01:04:34;;;;;;;14.43;10.40;;;24.60;99.90;;;;;;5052485;28;20044;-50
2023/10/05 01:07:17;;;;;;;13.73;10.07;;;24.60;99.90;;;;;;5051596;28;20504;-50
2023/10/05 01:14:52;;;;;;;16.45;9.27;;;24.50;99.90;;;;;;5052229;28;20564;-51
2023/10/05 01:17:22;;;;;;;15.82;10.80;;;24.50;99.90;;;;;;5052177;28;20366;-51
2023/10/05 01:19:55;;;;;;;12.27;8.85;;;24.50;99.90;;;;;;5034284;28;20048;-51
2023/10/05 01:22:22;;;;;;;15.00;9.93;;;24.50;99.90;;;;;;5052126;28;20017;-51
2023/10/05 01:24:49;;;;;;;13.77;10.05;;;24.50;99.90;;;;;;5052083;28;20063;-50
2023/10/05 01:27:16;;;;;;;16.85;9.68;;;24.50;99.90;;;;;;5052007;28;20071;-51
2023/10/05 01:29:42;;;;;;;12.48;9.55;;;24.50;99.90;;;;;;5051990;28;20071;-51
2023/10/05 01:32:09;;;;;;;13.57;10.13;;;24.50;99.90;;;;;;5052199;28;20393;-52
2023/10/05 01:34:36;;;;;;;15.07;10.38;;;24.60;99.90;;;;;;5051884;28;20107;-51
2023/10/05 01:37:03;;;;;;;14.35;9.73;;;24.60;99.90;;;;;;5051880;28;20108;-51
2023/10/05 01:39:34;;;;;;;12.68;9.60;;;24.60;99.90;;;;;;5051726;28;20067;-52
2023/10/05 01:42:04;;;;;;;17.30;10.40;;;24.60;99.90;;;;;;5052042;28;20397;-52
2023/10/05 01:44:30;;;;;;;16.40;9.95;;;24.60;99.90;;;;;;5051852;28;20064;-52
2023/10/05 01:46:58;;;;;;;18.08;9.68;;;24.60;99.90;;;;;;5051813;28;20064;-52
2023/10/05 01:49:25;;;;;;;15.45;9.52;;;24.60;99.90;;;;;;5051466;28;20031;-51
2023/10/05 01:51:52;;;;;;;17.20;10.18;;;24.70;99.90;;;;;;5051786;28;20018;-52
2023/10/05 01:54:18;;;;;;;13.63;10.55;;;24.70;99.90;;;;;;5051571;28;20473;-52
2023/10/05 01:56:47;;;;;;;13.30;9.70;;;24.70;99.90;;;;;;5051618;28;20028;-52
2023/10/05 01:59:13;;;;;;;14.43;9.85;;;24.70;99.90;;;;;;5033867;28;20057;-52
2023/10/05 02:01:40;;;;;;;10.88;9.20;;;24.70;99.90;;;;;;5040540;23;20045;-51
2023/10/05 02:04:07;;;;;;;16.35;11.15;;;24.70;99.90;;;;;;5012271;28;20490;-51
2023/10/05 02:06:49;;;;;;;13.80;9.20;;;24.70;99.90;;;;;;5011957;28;20029;-51
2023/10/05 02:09:20;;;;;;;18.60;10.77;;;24.70;99.90;;;;;;5011897;28;20485;-51
2023/10/05 02:11:47;;;;;;;15.15;10.48;;;24.70;99.90;;;;;;5011884;28;20018;-51
2023/10/05 02:14:16;;;;;;;14.32;10.50;;;24.70;99.90;;;;;;5011700;28;20021;-51
2023/10/05 02:16:49;;;;;;;15.15;9.93;;;24.70;99.90;;;;;;5011968;28;20502;-51
2023/10/05 02:19:16;;;;;;;16.05;10.20;;;24.70;99.90;;;;;;5015685;28;20073;-52
2023/10/05 02:21:43;;;;;;;17.35;9.60;;;24.80;99.90;;;;;;5015825;28;20021;-51
2023/10/05 02:24:18;;;;;;;14.45;10.63;;;24.70;99.90;;;;;;5007929;28;20123;-51
2023/10/05 02:29:27;;;;;;;14.35;10.07;;;24.70;99.90;;;;;;5015570;28;20021;-51
2023/10/05 02:32:05;;;;;;;;;;;24.70;99.90;;;;;;5016228;28;20052;-51
2023/10/05 02:37:11;;;;;;;12.57;9.82;;;24.70;99.90;;;;;;5015855;28;20378;-51
2023/10/05 02:39:38;;;;;;;14.20;9.85;;;24.70;99.90;;;;;;5015508;28;20037;-51
2023/10/05 02:42:06;;;;;;;14.85;9.57;;;24.70;99.90;;;;;;5015714;28;20415;-52
2023/10/05 02:44:37;;;;;;;13.45;9.90;;;24.70;99.90;;;;;;5015354;28;20037;-51
2023/10/05 02:47:10;;;;;;;15.18;9.65;;;24.70;99.90;;;;;;5015368;28;20561;-52
2023/10/05 02:49:49;;;;;;;15.20;10.18;;;24.70;99.90;;;;;;5015357;28;20068;-52
2023/10/05 02:52:16;;;;;;;17.08;10.73;;;24.70;99.90;;;;;;5015301;28;20029;-51
2023/10/05 02:54:48;;;;;;;18.02;11.13;;;24.70;99.90;;;;;;5014954;28;20052;-51
2023/10/05 02:57:16;;;;;;;17.48;10.63;;;24.70;99.90;;;;;;5015164;28;20062;-51
2023/10/05 02:59:45;;;;;;;;;;;24.70;99.90;;;;;;5015385;28;20030;-53
2023/10/05 03:02:14;;;;;;;13.40;10.85;;;24.70;99.90;;;;;;5015463;28;19988;-52
2023/10/05 03:07:16;;;;;;;16.13;11.68;;;24.70;99.90;;;;;;5014801;28;20010;-51
2023/10/05 03:09:43;;;;;;;13.90;11.30;;;24.70;99.90;;;;;;5014898;28;20025;-51
2023/10/05 03:12:12;;;;;;;19.23;11.65;;;24.70;99.90;;;;;;5014989;28;20033;-52
2023/10/05 03:14:40;;;;;;;22.10;11.95;;;24.70;99.90;;;;;;5014970;28;20026;-52
2023/10/05 03:17:12;;;;;;;17.98;11.18;;;24.70;99.90;;;;;;5014772;28;20048;-51
2023/10/05 03:19:39;;;;;;;14.15;11.52;;;24.70;99.90;;;;;;5015037;28;20448;-51
2023/10/05 03:22:07;;;;;;;19.05;12.10;;;24.60;99.90;;;;;;5015161;28;20022;-51
2023/10/05 03:24:36;;;;;;;14.82;12.30;;;24.60;99.90;;;;;;5014598;28;20383;-51
2023/10/05 03:27:08;;;;;;;16.92;11.30;;;24.60;99.90;;;;;;5006923;28;20061;-51
2023/10/05 03:29:35;;;;;;;15.32;11.63;;;24.50;99.90;;;;;;5013620;28;20017;-51
2023/10/05 03:34:34;;;;;;;15.57;11.75;;;24.50;99.90;;;;;;5014343;28;20038;-52
2023/10/05 03:37:07;;;;;;;15.10;11.70;;;24.50;99.90;;;;;;5006608;28;20068;-51
2023/10/05 03:39:38;;;;;;;17.58;12.82;;;24.40;99.90;;;;;;5014193;28;20382;-51
2023/10/05 03:42:13;;;;;;;16.95;11.52;;;24.40;99.90;;;;;;5014355;28;20072;-51
2023/10/05 03:44:39;;;;;;;18.30;12.13;;;24.50;99.90;;;;;;5014436;28;20018;-51
2023/10/05 03:47:05;;;;;;;20.05;12.65;;;24.40;99.90;;;;;;5014404;28;20109;-51
2023/10/05 03:49:31;;;;;;;22.67;13.15;;;24.40;99.90;;;;;;5014101;28;20026;-51
2023/10/05 03:51:56;;;;;;;22.52;12.65;;;24.40;99.90;;;;;;5012400;28;20030;-50
2023/10/05 03:54:25;;;;;;;17.38;12.27;;;24.40;99.90;;;;;;5014092;28;20104;-52
2023/10/05 03:57:04;;;;;;;21.65;13.00;;;24.30;99.90;;;;;;5014061;28;20045;-51
2023/10/05 03:59:33;;;;;;;19.92;12.50;;;24.30;99.90;;;;;;5014045;28;20497;-51
2023/10/05 04:02:00;;;;;;;22.60;13.02;;;24.30;99.90;;;;;;5014427;28;20140;-51
2023/10/05 04:04:28;;;;;;;20.15;12.23;;;24.30;99.90;;;;;;5013941;28;20025;-52
2023/10/05 04:06:54;;;;;;;25.13;11.77;;;24.30;99.90;;;;;;5011475;28;20030;-51
2023/10/05 04:09:20;;;;;;;21.45;11.55;;;24.30;99.90;;;;;;5013863;28;20077;-51
2023/10/05 04:11:48;;;;;;;16.95;11.15;;;24.30;99.90;;;;;;5013698;28;20022;-51
2023/10/05 04:14:14;;;;;;;;;;;24.30;99.90;;;;;;5013896;28;20018;-51
2023/10/05 04:16:42;;;;;;;17.95;11.10;;;24.30;99.90;;;;;;5013569;28;19905;-51
2023/10/05 04:19:11;;;;;;;18.27;11.95;;;24.30;99.90;;;;;;5013738;28;20022;-52
2023/10/05 04:21:37;;;;;;;17.58;11.55;;;24.30;99.90;;;;;;5013896;28;20044;-50
2023/10/05 04:24:03;;;;;;;14.18;11.45;;;24.30;99.90;;;;;;5004623;28;20375;-51
2023/10/05 04:26:39;;;;;;;15.75;11.63;;;24.30;99.90;;;;;;5013515;28;20041;-51
2023/10/05 04:29:08;;;;;;;17.38;11.38;;;24.30;99.90;;;;;;5013500;28;20022;-51
2023/10/05 04:31:36;;;;;;;14.52;11.20;;;24.30;99.90;;;;;;5013348;28;20032;-52
2023/10/05 04:34:05;;;;;;;;;;;24.30;99.90;;;;;;5013829;28;20068;-52
2023/10/05 04:36:32;;;;;;;14.60;11.48;;;24.20;99.90;;;;;;5013416;28;20412;-51
2023/10/05 04:38:58;;;;;;;15.88;10.95;;;24.30;99.90;;;;;;5013321;28;20080;-52
2023/10/05 04:41:31;;;;;;;16.23;11.25;;;24.30;99.90;;;;;;5011856;28;20021;-50
2023/10/05 04:43:58;;;;;;;15.73;10.75;;;24.30;99.90;;;;;;5004898;28;20089;-51
2023/10/05 04:46:24;;;;;;;14.35;10.45;;;24.30;99.90;;;;;;5012731;28;20022;-51
2023/10/05 04:49:02;;;;;;;14.00;9.93;;;24.30;99.90;;;;;;5012494;28;20026;-51
2023/10/05 04:51:30;;;;;;;14.82;11.63;;;24.30;99.90;;;;;;5011676;28;20018;-51
2023/10/05 04:53:59;;;;;;;18.70;11.23;;;24.30;99.90;;;;;;5011709;28;20041;-51
2023/10/05 04:56:35;;;;;;;20.45;11.50;;;24.30;99.90;;;;;;5012437;28;20037;-50
2023/10/05 05:04:28;;;;;;;13.95;11.13;;;24.30;99.90;;;;;;5012869;28;20498;-50
2023/10/05 05:06:55;;;;;;;15.65;9.95;;;24.30;99.90;;;;;;5012678;28;20022;-51
2023/10/05 05:09:21;;;;;;;21.38;11.18;;;24.30;99.90;;;;;;5013357;28;20037;-51
2023/10/05 05:11:49;;;;;;;18.73;11.80;;;24.30;99.90;;;;;;5011945;28;20402;-51
2023/10/05 05:14:15;;;;;;;16.13;11.82;;;24.30;99.90;;;;;;5012605;28;20474;-51
2023/10/05 05:16:43;;;;;;;14.07;10.20;;;24.30;99.90;;;;;;5012606;28;20129;-51
2023/10/05 05:19:09;;;;;;;17.35;11.10;;;24.30;99.90;;;;;;5012756;28;20462;-51
2023/10/05 05:21:36;;;;;;;15.40;10.77;;;24.30;99.90;;;;;;4995513;28;20022;-51
2023/10/05 05:24:02;;;;;;;15.60;12.20;;;24.30;99.90;;;;;;5012545;28;20093;-51
2023/10/05 05:26:28;;;;;;;28.33;11.70;;;24.20;99.90;;;;;;5012538;28;20090;-51
2023/10/05 05:28:55;;;;;;;19.48;10.60;;;24.30;99.90;;;;;;5012632;28;20465;-52
2023/10/05 05:31:21;;;;;;;19.33;12.20;;;24.30;99.90;;;;;;5012482;28;20034;-51
2023/10/05 05:33:48;;;;;;;17.05;11.30;;;24.20;99.90;;;;;;5012441;28;20105;-51
2023/10/05 05:36:14;;;;;;;18.73;12.45;;;24.20;99.90;;;;;;5012219;28;20343;-52
2023/10/05 05:38:40;;;;;;;15.25;11.60;;;24.20;99.90;;;;;;5012439;28;20028;-51
2023/10/05 05:41:14;;;;;;;15.25;11.98;;;24.20;99.90;;;;;;5012336;28;20030;-51
2023/10/05 05:43:40;;;;;;;17.08;13.02;;;24.20;99.90;;;;;;5012242;28;20025;-51
2023/10/05 05:46:12;;;;;;;15.35;11.23;;;24.20;99.90;;;;;;5012275;28;20100;-51
2023/10/05 05:48:39;;;;;;;17.85;11.05;;;24.20;99.90;;;;;;5012363;28;20399;-51
2023/10/05 05:51:10;;;;;;;13.70;11.40;;;24.10;99.90;;;;;;5012024;28;20100;-51
2023/10/05 05:53:37;;;;;;;18.50;12.27;;;24.10;99.90;;;;;;5012060;28;20018;-51
2023/10/05 05:56:04;;;;;;;16.63;12.13;;;24.10;99.90;;;;;;5012063;28;20125;-51
2023/10/05 05:58:29;;;;;;;18.23;11.95;;;24.10;99.90;;;;;;5011905;28;20096;-51
2023/10/05 06:00:57;;;;;;;18.42;12.35;;;24.10;99.90;;;;;;5011970;28;20133;-51
2023/10/05 06:03:24;;;;;;;;;;;24.10;99.90;;;;;;5012287;28;20014;-51
2023/10/05 06:05:51;;;;;;;18.48;11.32;;;24.10;99.90;;;;;;5011921;28;20075;-51
2023/10/05 06:08:17;;;;;;;15.55;11.50;;;24.10;99.90;;;;;;5011811;28;20076;-51
2023/10/05 06:10:46;;;;;;;22.33;11.43;;;24.10;99.90;;;;;;5011831;28;20109;-51
2023/10/05 06:13:12;;;;;;;14.27;11.90;;;24.10;99.90;;;;;;5012049;28;20029;-51
2023/10/05 06:15:38;;;;;;;14.88;11.23;;;24.10;99.90;;;;;;5011881;28;20041;-51
2023/10/05 06:18:04;;;;;;;24.13;11.85;;;24.10;99.90;;;;;;4994499;28;20033;-51
2023/10/05 06:20:31;;;;;;;15.93;12.07;;;24.10;99.90;;;;;;5011822;28;20428;-51
2023/10/05 06:22:58;;;;;;;18.00;12.25;;;24.10;99.90;;;;;;5011927;28;20033;-52
2023/10/05 06:25:25;;;;;;;18.42;11.45;;;24.10;99.90;;;;;;5011815;28;20421;-51
2023/10/05 06:27:51;;;;;;;22.48;12.07;;;24.10;99.90;;;;;;5011568;28;20068;-51
2023/10/05 06:30:17;;;;;;;20.50;12.27;;;24.10;99.90;;;;;;5011769;28;20033;-51
2023/10/05 06:32:43;;;;;;;22.55;12.93;;;24.10;99.90;;;;;;5011549;28;20014;-52
2023/10/05 06:35:09;;;;;;;19.17;12.40;;;24.10;99.90;;;;;;5012029;28;20091;-51
2023/10/05 06:37:41;;;;;;;16.60;11.93;;;24.10;99.90;;;;;;5011755;28;20022;-51
2023/10/05 06:40:14;;;;;;;13.52;10.77;;;24.10;99.90;;;;;;5011962;28;20034;-51
2023/10/05 06:42:41;;;;;;;17.17;11.15;;;24.10;99.90;;;;;;5011818;28;20022;-51
2023/10/05 06:45:14;;;;;;;14.80;12.20;;;24.10;99.90;;;;;;5011849;28;20029;-51
2023/10/05 06:47:40;;;;;;;15.00;11.35;;;24.10;99.90;;;;;;5007787;28;20388;-51
2023/10/05 06:50:11;;;;;;;17.30;11.88;;;24.10;99.90;;;;;;5011953;28;20018;-51
2023/10/05 06:52:44;;;;;;;17.02;11.52;;;24.20;99.90;;;;;;5011858;28;20100;-52
2023/10/05 06:55:14;;;;;;;15.85;11.10;;;24.20;99.90;;;;;;5011570;28;20490;-51
2023/10/05 06:57:43;;;;;;;18.65;10.82;;;24.20;99.90;;;;;;5011751;28;20026;-51
2023/10/05 07:00:11;;;;;;;14.30;10.77;;;24.30;99.90;;;;;;5011590;28;20029;-51
2023/10/05 07:02:39;;;;;;;21.98;10.95;;;24.30;99.90;;;;;;5012029;28;20052;-51
2023/10/05 07:05:08;;;;;;;17.08;10.80;;;24.30;99.90;;;;;;5013632;28;20068;-51
2023/10/05 07:07:37;;;;;;;19.25;10.52;;;24.30;99.90;;;;;;5001242;28;20486;-50
2023/10/05 07:10:06;;;;;;;15.60;10.18;;;24.30;99.90;;;;;;5014870;28;20069;-52
2023/10/05 07:12:35;;;;;;;18.02;10.00;;;24.40;99.90;;;;;;5014856;28;20025;-51
2023/10/05 07:15:02;;;;;;;12.82;10.43;;;24.40;99.90;;;;;;5014761;28;20045;-51
2023/10/05 07:17:29;;;;;;;20.10;11.33;;;24.40;99.90;;;;;;5014682;28;20022;-51
2023/10/05 07:19:54;;;;;;;17.17;9.27;;;24.50;99.90;;;;;;5014870;28;20030;-51
2023/10/05 07:22:22;;;;;;;17.60;10.02;;;24.50;99.90;;;;;;5014487;28;20417;-51
2023/10/05 07:24:48;;;;;;;15.45;9.73;;;24.60;99.90;;;;;;5014572;28;20026;-51
2023/10/05 07:27:14;;;;;;;18.27;9.82;;;24.60;99.90;;;;;;5014680;28;20029;-52
2023/10/05 07:29:46;;;;;;;17.02;10.00;;;24.60;99.90;;;;;;5000993;28;20022;-51
2023/10/05 07:32:13;;;;;;;15.80;10.27;;;24.70;99.90;;;;;;5014461;28;20033;-53
2023/10/05 07:34:43;;;;;;;12.40;9.43;;;24.70;99.90;;;;;;5014476;28;20079;-51
2023/10/05 07:37:12;;;;;;;18.85;10.38;;;24.80;99.90;;;;;;5014642;28;20116;-51
2023/10/05 07:39:40;;;;;;;14.30;10.18;;;24.80;99.90;;;;;;5014453;28;20014;-51
2023/10/05 07:42:10;;;;;;;17.58;9.88;;;24.90;99.90;;;;;;5014672;28;20367;-51
2023/10/05 07:44:37;;;;;;;16.60;9.60;;;24.90;99.90;;;;;;5014296;28;20141;-51
2023/10/05 07:47:05;;;;;;;16.27;8.88;;;25.00;99.90;;;;;;5014249;28;20038;-51
2023/10/05 07:49:34;;;;;;;11.05;8.93;;;25.00;99.90;;;;;;5013871;28;20034;-51
2023/10/05 07:52:01;;;;;;;14.27;9.38;;;25.10;99.90;;;;;;5014034;28;20049;-51
2023/10/05 07:54:28;;;;;;;15.60;8.82;;;25.10;99.90;;;;;;5013760;28;20025;-52
2023/10/05 07:56:53;;;;;;;15.07;10.52;;;25.20;99.90;;;;;;5014122;28;20026;-52
2023/10/05 07:59:21;;;;;;;14.32;9.65;;;25.30;99.90;;;;;;5013733;28;20439;-52
2023/10/05 08:01:49;;;;;;;14.27;9.30;;;25.30;99.90;;;;;;5013594;28;20073;-51
2023/10/05 08:04:15;;;;;;;16.13;9.38;;;25.40;99.90;;;;;;5013789;28;20029;-51
2023/10/05 08:06:44;;;;;;;11.43;8.57;;;25.40;99.90;;;;;;5013685;28;20102;-52
2023/10/05 08:09:15;;;;;;;15.50;9.27;;;25.50;99.90;;;;;;5013716;28;20017;-51
2023/10/05 08:11:42;;;;;;;14.23;8.55;;;25.60;99.90;;;;;;5013650;28;20022;-51
2023/10/05 08:14:08;;;;;;;15.35;8.45;;;25.60;99.90;;;;;;5013684;28;20022;-51
2023/10/05 08:16:34;;;;;;;11.60;8.20;;;25.70;99.90;;;;;;5013642;28;20494;-51
2023/10/05 08:19:00;;;;;;;12.23;8.38;;;25.80;99.90;;;;;;5013443;28;20033;-52
2023/10/05 08:21:27;;;;;;;14.55;9.30;;;25.80;99.90;;;;;;5013614;28;20478;-51
2023/10/05 08:23:53;;;;;;;17.57;9.63;;;25.90;99.90;;;;;;5013499;28;20022;-52
2023/10/05 08:26:19;;;;;;;16.15;7.90;;;25.90;99.90;;;;;;5013561;28;20092;-52
2023/10/05 08:28:49;;;;;;;15.23;8.32;;;26.00;99.90;;;;;;5013399;28;20475;-51
2023/10/05 08:31:22;;;;;;;11.80;8.23;;;26.10;99.90;;;;;;5013176;28;20018;-52
2023/10/05 08:33:49;;;;;;;12.95;7.90;;;26.10;99.90;;;;;;5013364;28;20437;-52
2023/10/05 08:36:17;;;;;;;13.13;8.00;;;26.20;99.90;;;;;;5013126;28;20026;-52
2023/10/05 08:38:47;;;;;;;14.05;7.93;;;26.20;99.90;;;;;;5013326;28;20575;-52
2023/10/05 08:41:35;;;;;;;11.02;7.80;;;26.20;99.90;;;;;;5012997;28;20491;-52
2023/10/05 08:44:11;;;;;;;11.00;7.53;;;26.30;99.90;;;;;;5013131;28;20030;-51
2023/10/05 08:46:44;;;;;;;11.90;7.65;;;26.30;99.90;;;;;;5013067;28;20022;-52
2023/10/05 08:49:11;;;;;;;11.02;8.10;;;26.40;99.90;;;;;;5013258;28;20018;-52
2023/10/05 08:51:40;;;;;;;15.27;7.97;;;26.40;99.90;;;;;;5008764;28;20034;-52
2023/10/05 08:54:13;;;;;;;10.60;7.20;;;26.50;99.90;;;;;;5013054;28;20044;-52
2023/10/05 08:56:47;;;;;;;10.43;7.97;;;26.50;99.90;;;;;;5012891;28;20026;-52
2023/10/05 08:59:13;;;;;;;9.40;7.20;;;26.60;99.90;;;;;;5012870;28;20018;-51
2023/10/05 09:01:43;;;;;;;13.57;7.47;;;26.60;99.90;;;;;;5012716;28;20050;-52
2023/10/05 09:04:12;;;;;;;14.60;8.25;;;26.60;99.90;;;;;;5013123;28;20062;-52
2023/10/05 09:06:49;;;;;;;9.27;6.80;;;26.60;99.90;;;;;;5012818;28;20112;-52
2023/10/05 09:09:23;;;;;;;14.48;8.38;;;26.70;99.90;;;;;;5012814;28;20049;-52
2023/10/05 09:11:50;;;;;;;12.95;8.25;;;26.80;99.90;;;;;;5012647;28;20037;-52
2023/10/05 09:14:27;;;;;;;11.93;7.87;;;26.80;99.90;;;;;;5005415;28;20548;-53
2023/10/05 09:17:03;;;;;;;;;;;26.90;99.90;;;;;;5013031;28;20040;-52
2023/10/05 09:19:29;;;;;;;9.70;7.22;;;26.90;99.90;;;;;;5007389;28;19951;-52
2023/10/05 09:22:10;;;;;;;12.80;7.45;;;27.00;99.90;;;;;;5012594;28;20085;-52
2023/10/05 09:24:37;;;;;;;12.68;7.90;;;27.00;99.90;;;;;;5008325;28;20022;-52
2023/10/05 09:27:17;;;;;;;6.67;5.97;;;27.00;99.90;;;;;;4978509;28;20025;-52
2023/10/05 09:29:44;;;;;;;10.23;7.10;;;27.10;99.90;;;;;;4999146;28;20147;-52
2023/10/05 09:32:39;;;;;;;10.40;7.50;;;27.10;99.90;;;;;;5012678;28;20026;-52
2023/10/05 09:35:09;;;;;;;13.52;8.45;;;27.20;99.90;;;;;;4995353;28;20120;-52
2023/10/05 09:37:39;;;;;;;11.52;7.07;;;27.20;99.90;;;;;;5012465;28;20026;-52
2023/10/05 09:40:15;;;;;;;10.65;7.50;;;27.30;99.90;;;;;;5012410;28;20145;-52
2023/10/05 09:42:43;;;;;;;19.92;8.40;;;27.30;99.90;;;;;;5011963;28;20037;-52
2023/10/05 09:45:12;;;;;;;14.90;7.82;;;27.40;99.90;;;;;;5012360;28;20029;-52
2023/10/05 09:47:40;;;;;;;12.55;7.38;;;27.50;99.90;;;;;;5012326;28;20479;-52
2023/10/05 09:50:13;;;;;;;12.05;8.02;;;27.60;99.90;;;;;;5012278;28;20057;-52
2023/10/05 09:52:43;;;;;;;16.58;7.65;;;27.60;99.90;;;;;;5012209;28;20022;-52
2023/10/05 09:55:12;;;;;;;11.43;6.78;;;27.70;99.90;;;;;;5011756;28;20053;-53
2023/10/05 09:57:46;;;;;;;21.33;7.63;;;27.70;99.90;;;;;;5012119;28;20105;-52
2023/10/05 10:03:00;;;;;;;9.48;6.47;;;27.90;99.90;;;;;;5011796;28;20443;-52
2023/10/05 10:05:41;;;;;;;11.25;6.35;;;28.00;99.90;;;;;;5011661;28;20018;-52
2023/10/05 10:08:21;;;;;;;10.60;6.80;;;28.00;99.90;;;;;;5012123;28;20072;-52
2023/10/05 10:11:37;;;;;;;13.48;6.93;;;28.10;99.90;;;;;;5011663;28;20470;-52
2023/10/05 10:14:01;;;;;;;10.82;6.88;;;28.20;99.90;;;;;;5004125;28;20026;-52
2023/10/05 10:16:28;;;;;;;13.48;6.72;;;28.20;99.90;;;;;;5011855;28;20084;-52
2023/10/05 10:19:19;;;;;;;10.73;6.75;;;28.30;99.90;;;;;;5011575;28;20079;-52
2023/10/05 10:21:57;;;;;;;10.35;6.45;;;28.40;99.90;;;;;;5011697;28;20101;-52
2023/10/05 10:24:24;;;;;;;;;;;28.40;99.90;;;;;;5012149;28;20014;-52
2023/10/05 10:27:08;;;;;;;10.57;6.35;;;28.50;99.90;;;;;;5011871;28;19927;-52
2023/10/05 10:29:53;;;;;;;11.93;6.20;;;28.60;99.90;;;;;;5011538;28;20026;-54
2023/10/05 10:32:22;;;;;;;8.90;5.85;;;28.70;99.90;;;;;;5011722;28;20470;-52
2023/10/05 10:34:56;;;;;;;12.02;6.45;;;28.70;99.90;;;;;;5011654;28;20081;-52
2023/10/05 10:38:20;;;;;;;11.93;6.22;;;28.80;99.90;;;;;;5011811;28;20381;-52
2023/10/05 10:45:33;;;;;;;9.23;6.05;;;29.00;99.90;;;;;;5015561;28;20065;-52
2023/10/05 10:50:45;;;;;;;12.85;6.63;;;29.20;99.90;;;;;;5015400;28;20041;-52
2023/10/05 10:53:19;;;;;;;10.43;6.35;;;29.20;99.90;;;;;;5007310;28;20029;-51
2023/10/05 10:56:03;;;;;;;9.20;6.05;;;29.30;99.90;;;;;;5015124;28;20038;-51
2023/10/05 10:58:34;;;;;;;10.45;6.47;;;29.30;99.90;;;;;;5014984;28;20075;-51
2023/10/05 11:01:13;;;;;;;11.10;6.07;;;29.40;99.90;;;;;;5006796;28;20053;-51
2023/10/05 11:03:41;;;;;;;9.00;6.15;;;29.50;99.90;;;;;;5015101;28;20153;-51
2023/10/05 11:06:09;;;;;;;10.65;6.30;;;29.50;99.90;;;;;;5015274;28;20010;-51
2023/10/05 11:08:40;;;;;;;9.18;5.82;;;29.50;99.90;;;;;;5015155;28;20108;-52
2023/10/05 11:11:09;;;;;;;10.18;6.10;;;29.60;99.90;;;;;;5015192;28;20026;-52
2023/10/05 11:13:49;;;;;;;8.73;5.57;;;29.60;99.90;;;;;;5015129;28;20494;-51
2023/10/05 11:16:15;;;;;;;8.32;5.75;;;29.80;99.90;;;;;;5002430;28;20037;-52
2023/10/05 11:19:04;;;;;;;9.43;5.70;;;29.80;99.90;;;;;;5014841;28;20073;-53
2023/10/05 11:21:35;;;;;;;7.25;5.70;;;29.80;99.90;;;;;;5014838;28;20927;-52
2023/10/05 11:24:07;;;;;;;8.02;4.90;;;29.80;99.90;;;;;;5006692;28;20105;-52
2023/10/05 11:26:35;;;;;;;8.18;5.15;;;29.90;99.90;;;;;;5014604;28;20022;-51
2023/10/05 11:29:15;;;;;;;9.00;5.35;;;29.90;99.90;;;;;;5014413;28;20025;-52
2023/10/05 11:31:41;;;;;;;8.98;5.95;;;30.00;99.90;;;;;;5010623;28;20490;-51
2023/10/05 11:34:13;;;;;;;8.82;5.95;;;30.00;99.90;;;;;;5014573;28;20044;-52
2023/10/05 11:36:42;;;;;;;6.78;5.30;;;30.10;99.90;;;;;;5014666;28;20030;-52
2023/10/05 11:39:26;;;;;;;9.95;6.43;;;30.10;99.90;;;;;;5014609;28;20088;-51
2023/10/05 11:41:56;;;;;;;8.40;5.72;;;30.20;99.90;;;;;;5014341;28;20018;-52
2023/10/05 11:44:25;;;;;;;9.90;6.25;;;30.30;99.90;;;;;;5014122;28;20021;-51
2023/10/05 11:46:54;;;;;;;10.75;5.32;;;30.30;99.90;;;;;;5014350;28;20029;-52
2023/10/05 11:49:30;;;;;;;9.20;5.07;;;30.30;99.90;;;;;;5014100;28;20025;-52
2023/10/05 11:51:57;;;;;;;11.38;5.32;;;30.40;99.90;;;;;;5014073;28;20145;-52
2023/10/05 11:54:34;;;;;;;7.55;5.30;;;30.50;99.90;;;;;;5014258;28;20041;-52
2023/10/05 11:57:05;;;;;;;7.45;4.88;;;30.50;99.90;;;;;;5001366;28;20482;-53
2023/10/05 11:59:31;;;;;;;9.65;5.97;;;30.50;99.90;;;;;;5013868;28;20036;-52
2023/10/05 12:01:58;;;;;;;7.45;5.10;;;30.60;99.90;;;;;;5013348;28;20042;-51
2023/10/05 12:04:24;;;;;;;8.02;4.78;;;30.70;99.90;;;;;;5013910;28;20030;-52
2023/10/05 12:06:58;;;;;;;9.32;5.05;;;30.70;99.90;;;;;;5013687;28;20028;-52
2023/10/05 12:09:30;;;;;;;7.30;5.40;;;30.70;99.90;;;;;;5008033;28;20113;-52
2023/10/05 12:11:58;;;;;;;6.65;4.60;;;30.70;99.90;;;;;;5013881;28;20457;-52
2023/10/05 12:14:26;;;;;;;9.30;5.05;;;30.60;99.90;;;;;;5000352;28;20022;-52
2023/10/05 12:16:56;;;;;;;9.65;5.10;;;30.70;99.90;;;;;;5013812;28;20030;-52
2023/10/05 12:19:29;;;;;;;10.93;6.30;;;30.70;99.90;;;;;;5013546;28;20018;-52
2023/10/05 12:21:59;;;;;;;7.70;5.72;;;30.60;99.90;;;;;;5013658;28;20344;-52
2023/10/05 12:24:26;;;;;;;7.78;5.40;;;30.60;99.90;;;;;;5013443;28;20018;-53
2023/10/05 12:26:53;;;;;;;6.32;5.38;;;30.60;99.90;;;;;;5013542;28;20022;-52
2023/10/05 12:29:19;;;;;;;8.88;5.30;;;30.60;99.90;;;;;;5013424;28;20018;-52
2023/10/05 12:31:47;;;;;;;8.70;5.22;;;30.50;99.90;;;;;;5013635;28;20497;-52
2023/10/05 12:34:16;;;;;;;;;;;30.50;99.90;;;;;;5013755;28;20401;-52
2023/10/05 12:36:49;;;;;;;5.97;5.38;;;30.50;99.90;;;;;;5013422;28;19960;-52
2023/10/05 12:39:20;;;;;;;7.93;5.32;;;30.50;99.90;;;;;;5013055;28;20482;-52
2023/10/05 12:41:46;;;;;;;8.35;5.55;;;30.50;99.90;;;;;;5013182;28;20034;-53
2023/10/05 12:44:13;;;;;;;7.32;5.32;;;30.50;99.90;;;;;;5013351;28;20022;-52
2023/10/05 12:46:40;;;;;;;6.97;5.53;;;30.50;99.90;;;;;;5013225;28;20033;-53
2023/10/05 12:49:10;;;;;;;10.43;6.80;;;30.50;99.90;;;;;;5013511;28;20037;-52
2023/10/05 12:51:39;;;;;;;7.03;5.60;;;30.50;99.90;;;;;;5013075;28;20029;-53
2023/10/05 12:54:09;;;;;;;8.70;4.95;;;30.50;99.90;;;;;;5013040;28;20022;-52
2023/10/05 12:56:41;;;;;;;8.68;5.03;;;30.50;99.90;;;;;;5012703;28;20117;-52
2023/10/05 12:59:08;;;;;;;6.97;5.30;;;30.50;99.90;;;;;;5013390;28;20073;-52
2023/10/05 13:01:43;;;;;;;8.73;4.78;;;30.50;99.90;;;;;;5011760;28;20073;-52
2023/10/05 13:04:09;;;;;;;6.10;5.05;;;30.60;99.90;;;;;;5012937;28;20030;-52
2023/10/05 13:06:39;;;;;;;6.03;4.72;;;30.60;99.90;;;;;;5012949;28;20014;-52
2023/10/05 13:09:11;;;;;;;7.20;4.80;;;30.50;99.90;;;;;;5012536;28;20501;-52
2023/10/05 13:11:41;;;;;;;5.97;4.78;;;30.50;99.90;;;;;;5012924;28;20462;-52
2023/10/05 13:14:08;;;;;;;6.40;5.15;;;30.40;99.90;;;;;;5012735;28;20454;-52
2023/10/05 13:16:35;;;;;;;8.43;5.15;;;30.50;99.90;;;;;;5012238;28;20036;-53
2023/10/05 13:19:06;;;;;;;10.32;5.78;;;30.50;99.90;;;;;;5012284;28;20104;-52
2023/10/05 13:21:32;;;;;;;6.60;4.68;;;30.40;99.90;;;;;;5012631;28;20029;-52
2023/10/05 13:23:58;;;;;;;9.50;4.95;;;30.40;99.90;;;;;;5012390;28;20030;-52
2023/10/05 13:26:26;;;;;;;8.18;5.32;;;30.50;99.90;;;;;;5012542;28;20025;-52
2023/10/05 13:28:53;;;;;;;10.77;4.72;;;30.50;99.90;;;;;;5012407;28;20072;-52
2023/10/05 13:31:20;;;;;;;9.32;5.35;;;30.50;99.90;;;;;;5012151;28;20057;-52